Time;durP1;ratioP1;P1;durP2;ratioP2;P2;SDS_P1;SDS_P2;PMS_P1;PMS_P2;Temp;Humidity;BMP_temperature;BMP_pressure;BME280_temperature;BME280_humidity;BME280_pressure;Samples;Min_cycle;Max_cycle;Signal;HPM_P1;HPM_P2
2023/03/17 00:00:13;;;;;;;3.90;3.07;;;5.40;79.40;;;;;;4987626;28;20654;-67
2023/03/17 00:02:41;;;;;;;3.40;3.10;;;5.40;79.30;;;;;;4980298;28;21310;-71
2023/03/17 00:05:25;;;;;;;7.13;3.13;;;5.40;80.20;;;;;;4977301;28;20196;-66
2023/03/17 00:07:53;;;;;;;5.37;3.17;;;5.30;80.60;;;;;;4990714;28;20752;-68
2023/03/17 00:10:24;;;;;;;4.63;2.83;;;5.20;81.50;;;;;;4995903;28;20200;-66
2023/03/17 00:12:52;;;;;;;4.47;3.30;;;5.20;82.40;;;;;;4994939;28;20211;-67
2023/03/17 00:15:19;;;;;;;3.27;2.93;;;5.20;82.60;;;;;;4996095;28;20204;-66
2023/03/17 00:17:47;;;;;;;8.30;3.90;;;5.20;83.20;;;;;;4994956;28;20702;-66
2023/03/17 00:20:22;;;;;;;4.47;2.63;;;5.20;83.20;;;;;;4994552;28;20654;-67
2023/03/17 00:22:48;;;;;;;4.17;3.53;;;5.20;83.60;;;;;;4977225;28;20687;-66
2023/03/17 00:25:23;;;;;;;6.60;3.37;;;5.10;83.90;;;;;;4976694;28;20655;-67
2023/03/17 00:27:49;;;;;;;6.83;2.50;;;5.10;84.80;;;;;;4957417;28;20300;-66
2023/03/17 00:30:21;;;;;;;4.80;2.83;;;5.00;85.50;;;;;;4976607;28;20259;-66
2023/03/17 00:32:49;;;;;;;4.43;2.87;;;5.10;85.70;;;;;;4976971;28;20220;-64
2023/03/17 00:35:18;;;;;;;4.70;2.80;;;5.10;85.80;;;;;;4976925;28;20201;-65
2023/03/17 00:37:45;;;;;;;7.50;3.10;;;5.10;86.20;;;;;;4984252;28;20326;-65
2023/03/17 00:40:20;;;;;;;9.93;3.30;;;5.10;86.60;;;;;;4986257;28;20205;-65
2023/03/17 00:42:46;;;;;;;6.50;3.83;;;5.10;86.20;;;;;;4985105;28;20214;-65
2023/03/17 00:45:11;;;;;;;4.97;3.87;;;5.10;86.90;;;;;;4989628;28;20676;-63
2023/03/17 00:47:37;;;;;;;7.53;3.97;;;5.10;87.10;;;;;;4995721;28;20211;-65
2023/03/17 00:50:04;;;;;;;5.80;3.23;;;5.10;86.80;;;;;;4995459;28;20870;-65
2023/03/17 00:52:30;;;;;;;7.30;3.67;;;5.10;87.40;;;;;;4995223;28;20215;-64
2023/03/17 00:54:55;;;;;;;5.80;4.37;;;5.10;87.30;;;;;;4995138;28;20196;-64
2023/03/17 00:57:21;;;;;;;5.07;3.80;;;5.10;87.10;;;;;;4993338;28;20664;-65
2023/03/17 00:59:47;;;;;;;6.97;3.93;;;5.00;87.40;;;;;;4995552;28;20247;-66
2023/03/17 01:02:13;;;;;;;6.67;3.47;;;5.00;87.50;;;;;;4994829;28;20254;-66
2023/03/17 01:04:40;;;;;;;7.87;4.43;;;5.00;87.90;;;;;;4992345;28;20742;-66
2023/03/17 01:07:06;;;;;;;6.27;3.57;;;5.10;87.60;;;;;;4975941;28;20209;-67
2023/03/17 01:09:32;;;;;;;6.37;4.57;;;5.00;88.30;;;;;;4974146;28;20192;-65
2023/03/17 01:11:58;;;;;;;6.47;4.17;;;5.10;90.90;;;;;;4977129;28;20236;-70
2023/03/17 01:14:26;;;;;;;4.23;3.30;;;5.10;88.60;;;;;;4976151;28;20212;-68
2023/03/17 01:16:53;;;;;;;6.20;3.30;;;5.10;89.10;;;;;;4976235;28;20197;-67
2023/03/17 01:19:19;;;;;;;4.23;3.67;;;5.00;88.90;;;;;;4989267;28;20273;-66
2023/03/17 01:21:45;;;;;;;4.67;3.50;;;5.00;88.80;;;;;;4992337;28;20227;-66
2023/03/17 01:24:11;;;;;;;7.23;3.97;;;5.00;88.80;;;;;;4995227;28;20223;-65
2023/03/17 01:26:37;;;;;;;8.07;4.07;;;5.00;89.30;;;;;;4995378;28;20430;-65
2023/03/17 01:29:05;;;;;;;6.90;3.53;;;5.00;89.60;;;;;;4995430;28;20215;-65
2023/03/17 01:31:30;;;;;;;7.83;4.37;;;5.10;89.70;;;;;;4994997;28;20250;-65
2023/03/17 01:33:56;;;;;;;4.83;3.53;;;5.00;89.40;;;;;;4992586;28;20555;-65
2023/03/17 01:36:22;;;;;;;6.40;3.47;;;5.00;89.60;;;;;;4994821;28;20222;-65
2023/03/17 01:38:49;;;;;;;6.57;3.37;;;5.00;89.80;;;;;;4995075;28;20753;-66
2023/03/17 01:41:16;;;;;;;7.83;3.90;;;5.00;89.60;;;;;;4995165;28;20192;-66
2023/03/17 01:43:42;;;;;;;5.20;3.93;;;5.00;90.10;;;;;;4994525;28;20467;-66
2023/03/17 01:46:14;;;;;;;5.20;4.03;;;5.00;90.10;;;;;;4993742;28;20261;-66
2023/03/17 01:48:51;;;;;;;7.63;4.03;;;5.00;90.10;;;;;;4995162;28;20200;-66
2023/03/17 01:51:43;;;;;;;5.53;3.70;;;4.90;90.30;;;;;;4986797;28;20203;-66
2023/03/17 01:54:15;;;;;;;9.43;4.03;;;4.90;90.60;;;;;;4985963;28;20303;-65
2023/03/17 01:56:44;;;;;;;4.10;3.70;;;4.90;90.50;;;;;;4988945;28;20239;-65
2023/03/17 01:59:15;;;;;;;4.90;4.03;;;4.90;90.80;;;;;;4989189;28;20246;-65
2023/03/17 02:01:43;;;;;;;9.43;4.10;;;4.80;90.80;;;;;;4987108;28;20259;-66
2023/03/17 02:04:10;;;;;;;5.53;3.67;;;4.90;90.90;;;;;;4988366;28;20215;-66
2023/03/17 02:06:37;;;;;;;5.40;3.70;;;4.90;90.90;;;;;;4989516;28;20216;-66
2023/03/17 02:09:03;;;;;;;4.73;4.10;;;4.90;91.00;;;;;;4989940;28;20227;-65
2023/03/17 02:11:29;;;;;;;7.60;4.90;;;4.90;91.20;;;;;;4989405;28;20200;-66
2023/03/17 02:13:55;;;;;;;4.57;4.13;;;4.80;91.50;;;;;;4989269;28;20223;-65
2023/03/17 02:16:20;;;;;;;5.87;4.53;;;4.90;91.40;;;;;;4987034;28;20669;-65
2023/03/17 02:18:46;;;;;;;7.73;4.23;;;4.80;91.30;;;;;;4985467;28;20244;-65
2023/03/17 02:21:39;;;;;;;5.63;4.30;;;4.80;91.80;;;;;;4988629;28;20275;-66
2023/03/17 02:24:11;;;;;;;12.47;4.57;;;4.80;91.80;;;;;;4988736;28;20625;-65
2023/03/17 02:26:37;;;;;;;6.73;5.03;;;4.80;92.10;;;;;;4988575;28;20236;-65
2023/03/17 02:29:04;;;;;;;8.37;4.40;;;4.80;92.10;;;;;;4988038;28;20215;-65
2023/03/17 02:31:30;;;;;;;8.97;4.47;;;4.80;91.90;;;;;;4988138;28;20204;-66
2023/03/17 02:33:56;;;;;;;8.00;4.73;;;4.80;92.00;;;;;;4987926;28;20233;-65
2023/03/17 02:36:22;;;;;;;7.10;4.60;;;4.80;92.10;;;;;;4987942;28;20192;-65
2023/03/17 02:38:47;;;;;;;10.03;4.83;;;4.80;92.20;;;;;;4988243;28;20275;-65
2023/03/17 02:41:13;;;;;;;4.83;3.87;;;4.80;92.00;;;;;;4988371;28;20205;-64
2023/03/17 02:43:40;;;;;;;9.87;4.50;;;4.80;92.10;;;;;;4986251;28;20293;-65
2023/03/17 02:46:06;;;;;;;5.97;4.57;;;4.80;92.30;;;;;;4988796;28;20239;-65
2023/03/17 02:48:33;;;;;;;5.53;4.20;;;4.80;92.00;;;;;;4988575;28;20623;-65
2023/03/17 02:50:58;;;;;;;8.77;4.27;;;4.80;92.20;;;;;;4989256;28;20204;-66
2023/03/17 02:53:24;;;;;;;9.33;5.13;;;4.80;92.10;;;;;;4988678;28;20228;-66
2023/03/17 02:55:50;;;;;;;10.10;4.47;;;4.80;92.20;;;;;;4986727;28;20711;-66
2023/03/17 02:58:15;;;;;;;5.10;4.60;;;4.80;92.30;;;;;;4965677;28;20343;-66
2023/03/17 03:00:40;;;;;;;4.53;3.80;;;4.80;92.20;;;;;;4978979;28;20632;-65
2023/03/17 03:03:06;;;;;;;9.10;5.07;;;4.80;92.30;;;;;;4987176;28;20608;-66
2023/03/17 03:05:31;;;;;;;11.50;4.03;;;4.80;92.40;;;;;;4989291;28;20207;-66
2023/03/17 03:07:57;;;;;;;8.60;4.50;;;4.80;92.20;;;;;;4994618;28;20842;-65
2023/03/17 03:10:23;;;;;;;8.07;4.47;;;4.80;92.30;;;;;;4997513;28;20258;-66
2023/03/17 03:12:48;;;;;;;7.33;3.60;;;4.80;92.50;;;;;;4994332;28;20211;-67
2023/03/17 03:15:14;;;;;;;6.83;4.00;;;4.90;92.00;;;;;;4994256;28;21373;-67
2023/03/17 03:17:40;;;;;;;5.53;4.13;;;4.90;92.20;;;;;;4997043;28;20212;-66
2023/03/17 03:20:06;;;;;;;6.53;4.17;;;4.90;92.60;;;;;;4996728;28;20200;-66
2023/03/17 03:22:32;;;;;;;6.03;3.80;;;4.90;92.00;;;;;;4994321;28;20628;-67
2023/03/17 03:24:57;;;;;;;5.93;4.73;;;4.90;92.10;;;;;;4996239;28;20200;-67
2023/03/17 03:27:23;;;;;;;7.20;4.67;;;4.80;92.20;;;;;;4996054;28;20651;-67
2023/03/17 03:29:48;;;;;;;8.87;4.33;;;4.80;92.20;;;;;;4996523;28;20217;-67
2023/03/17 03:32:13;;;;;;;8.77;5.30;;;4.80;92.00;;;;;;4989963;28;20621;-67
2023/03/17 03:34:39;;;;;;;6.60;4.37;;;4.80;92.30;;;;;;4986382;28;20224;-66
2023/03/17 03:37:04;;;;;;;7.93;3.87;;;4.80;92.50;;;;;;4987275;28;20200;-66
2023/03/17 03:39:30;;;;;;;6.67;4.87;;;4.80;92.40;;;;;;4986205;28;20223;-66
2023/03/17 03:41:57;;;;;;;6.67;4.40;;;4.80;92.50;;;;;;4986578;28;20207;-66
2023/03/17 03:44:22;;;;;;;5.63;4.27;;;4.80;92.50;;;;;;4986981;28;20207;-66
2023/03/17 03:46:48;;;;;;;5.97;4.17;;;4.80;92.40;;;;;;4986828;28;20196;-67
2023/03/17 03:49:13;;;;;;;7.97;4.73;;;4.80;92.60;;;;;;4985148;28;20204;-66
2023/03/17 03:51:39;;;;;;;12.10;4.53;;;4.80;92.60;;;;;;4987092;28;20196;-66
2023/03/17 03:54:05;;;;;;;5.90;5.00;;;4.80;92.50;;;;;;4987214;28;20208;-66
2023/03/17 03:56:30;;;;;;;5.93;4.43;;;4.80;92.50;;;;;;4987617;28;20212;-67
2023/03/17 03:58:56;;;;;;;9.33;4.83;;;4.80;92.50;;;;;;4987813;28;20239;-68
2023/03/17 04:01:21;;;;;;;4.83;4.23;;;4.70;92.50;;;;;;4987842;28;20231;-67
2023/03/17 04:03:47;;;;;;;8.90;4.53;;;4.70;92.50;;;;;;4985204;28;20211;-68
2023/03/17 04:06:13;;;;;;;8.63;4.47;;;4.70;92.40;;;;;;4986979;28;20737;-68
2023/03/17 04:08:38;;;;;;;8.37;4.33;;;4.60;92.50;;;;;;4987331;28;20624;-68
2023/03/17 04:11:04;;;;;;;8.70;5.07;;;4.60;92.70;;;;;;4986503;28;20308;-68
2023/03/17 04:13:30;;;;;;;9.47;4.53;;;4.60;92.70;;;;;;4986577;28;20193;-67
2023/03/17 04:15:55;;;;;;;5.73;3.43;;;4.60;92.90;;;;;;4986481;28;20209;-67
2023/03/17 04:18:21;;;;;;;7.90;5.23;;;4.60;92.90;;;;;;4984732;28;20386;-67
2023/03/17 04:20:46;;;;;;;8.37;5.27;;;4.50;93.00;;;;;;4987179;28;20755;-67
2023/03/17 04:23:12;;;;;;;7.07;5.10;;;4.60;92.80;;;;;;4985213;28;20242;-67
2023/03/17 04:25:37;;;;;;;14.27;4.63;;;4.60;93.00;;;;;;4976731;28;20200;-66
2023/03/17 04:28:03;;;;;;;6.90;4.33;;;4.60;92.70;;;;;;4977063;28;20201;-67
2023/03/17 04:30:29;;;;;;;5.73;4.17;;;4.60;92.80;;;;;;4976188;28;20602;-66
2023/03/17 04:32:54;;;;;;;7.87;4.20;;;4.60;92.90;;;;;;4976524;28;20296;-67
2023/03/17 04:35:21;;;;;;;5.47;4.03;;;4.60;92.80;;;;;;4976639;28;20618;-66
2023/03/17 04:37:47;;;;;;;7.57;4.80;;;4.50;92.80;;;;;;4977438;28;20220;-65
2023/03/17 04:40:14;;;;;;;6.90;4.53;;;4.50;92.70;;;;;;4978138;28;20207;-66
2023/03/17 04:42:40;;;;;;;10.17;4.80;;;4.50;92.80;;;;;;4975477;28;20240;-66
2023/03/17 04:45:13;;;;;;;8.33;4.23;;;4.50;92.90;;;;;;4976697;28;20231;-67
2023/03/17 04:47:38;;;;;;;6.27;4.63;;;4.50;92.80;;;;;;4977437;28;20231;-65
2023/03/17 04:50:06;;;;;;;5.43;4.47;;;4.60;92.80;;;;;;4976822;28;20212;-65
2023/03/17 04:52:32;;;;;;;6.07;4.40;;;4.50;92.80;;;;;;4974924;28;20215;-66
2023/03/17 04:54:58;;;;;;;7.70;4.30;;;4.50;93.00;;;;;;4976553;28;20209;-66
2023/03/17 04:57:23;;;;;;;4.73;4.23;;;4.60;93.00;;;;;;4975999;28;20307;-65
2023/03/17 04:59:49;;;;;;;8.23;4.60;;;4.60;92.50;;;;;;4979033;28;20544;-66
2023/03/17 05:02:15;;;;;;;6.87;4.57;;;4.50;92.50;;;;;;4986177;28;20200;-65
2023/03/17 05:04:41;;;;;;;5.73;4.17;;;4.60;92.50;;;;;;4985379;28;20215;-65
2023/03/17 05:07:06;;;;;;;7.00;4.30;;;4.60;92.50;;;;;;4983552;28;20203;-66
2023/03/17 05:09:31;;;;;;;8.53;5.17;;;4.60;92.50;;;;;;4984860;28;20270;-67
2023/03/17 05:11:57;;;;;;;6.97;4.40;;;4.60;92.50;;;;;;4985183;28;20699;-67
2023/03/17 05:14:24;;;;;;;5.17;4.67;;;4.60;92.40;;;;;;4984725;28;20231;-67
2023/03/17 05:16:49;;;;;;;6.10;4.53;;;4.50;92.20;;;;;;4984484;28;20300;-65
2023/03/17 05:19:15;;;;;;;5.07;4.23;;;4.50;92.20;;;;;;4985828;28;20355;-67
2023/03/17 05:21:41;;;;;;;4.70;3.80;;;4.50;92.20;;;;;;4985616;28;20894;-66
2023/03/17 05:24:07;;;;;;;4.53;3.93;;;4.50;92.10;;;;;;4985980;28;20199;-66
2023/03/17 05:26:33;;;;;;;8.57;4.33;;;4.60;92.20;;;;;;4985494;28;20839;-65
2023/03/17 05:28:59;;;;;;;6.03;4.23;;;4.50;92.40;;;;;;4967487;28;20231;-66
2023/03/17 05:31:24;;;;;;;5.07;3.57;;;4.60;92.00;;;;;;4987188;28;20302;-66
2023/03/17 05:33:50;;;;;;;7.73;4.00;;;4.60;92.20;;;;;;4988896;28;20310;-66
2023/03/17 05:36:16;;;;;;;5.73;3.93;;;4.60;91.60;;;;;;4989393;28;20758;-67
2023/03/17 05:38:42;;;;;;;7.60;4.10;;;4.60;91.60;;;;;;4993596;28;20341;-64
2023/03/17 05:41:07;;;;;;;7.30;4.37;;;4.60;91.40;;;;;;4987795;28;20200;-65
2023/03/17 05:43:33;;;;;;;4.53;3.80;;;4.60;91.50;;;;;;4989489;28;20207;-64
2023/03/17 05:45:59;;;;;;;5.20;4.07;;;4.70;91.60;;;;;;4989305;28;20282;-64
2023/03/17 05:48:25;;;;;;;5.83;3.77;;;4.70;91.50;;;;;;4988970;28;20262;-65
2023/03/17 05:50:50;;;;;;;5.17;4.13;;;4.80;91.20;;;;;;4989055;28;20278;-65
2023/03/17 05:53:16;;;;;;;5.27;3.87;;;4.80;90.90;;;;;;4988742;28;20667;-64
2023/03/17 05:55:42;;;;;;;7.47;4.20;;;4.80;91.10;;;;;;4987039;28;20209;-67
2023/03/17 05:58:08;;;;;;;5.10;3.77;;;4.80;90.80;;;;;;4989715;28;20223;-65
2023/03/17 06:00:35;;;;;;;5.43;4.17;;;4.80;90.90;;;;;;4989327;28;20743;-66
2023/03/17 06:03:01;;;;;;;9.23;4.20;;;4.90;90.70;;;;;;4989516;28;20200;-65
2023/03/17 06:05:26;;;;;;;7.50;4.03;;;4.90;90.50;;;;;;4987126;28;20952;-66
2023/03/17 06:07:52;;;;;;;6.50;4.40;;;4.90;90.60;;;;;;4988689;28;20211;-65
2023/03/17 06:10:18;;;;;;;6.47;3.53;;;4.90;90.40;;;;;;4988785;28;20208;-66
2023/03/17 06:12:43;;;;;;;6.43;3.90;;;5.00;90.50;;;;;;4988470;28;20681;-66
2023/03/17 06:15:09;;;;;;;5.80;3.60;;;5.00;90.30;;;;;;4992144;28;20204;-66
2023/03/17 06:17:35;;;;;;;4.70;3.60;;;5.00;90.30;;;;;;4988795;28;20712;-67
2023/03/17 06:20:02;;;;;;;8.17;3.80;;;5.00;90.40;;;;;;4986356;28;20753;-66
2023/03/17 06:22:28;;;;;;;9.27;4.17;;;5.10;89.60;;;;;;4988938;28;20193;-66
2023/03/17 06:24:53;;;;;;;5.33;3.90;;;5.10;89.10;;;;;;4991374;28;20645;-65
2023/03/17 06:27:19;;;;;;;6.13;4.57;;;5.10;89.40;;;;;;4987517;28;20689;-67
2023/03/17 06:29:44;;;;;;;4.77;3.90;;;5.10;89.50;;;;;;4986668;28;20311;-65
2023/03/17 06:32:11;;;;;;;4.73;3.43;;;5.10;89.50;;;;;;4990395;28;20240;-67
2023/03/17 06:34:37;;;;;;;4.60;3.63;;;5.20;89.10;;;;;;4986587;28;20223;-67
2023/03/17 06:37:03;;;;;;;6.90;4.00;;;5.20;88.70;;;;;;4987954;28;20197;-65
2023/03/17 06:39:29;;;;;;;11.57;4.23;;;5.10;88.70;;;;;;4989322;28;20216;-66
2023/03/17 06:41:55;;;;;;;7.43;3.70;;;5.20;88.90;;;;;;4992791;28;20248;-66
2023/03/17 06:44:20;;;;;;;5.33;4.03;;;5.30;88.40;;;;;;4994444;28;20210;-68
2023/03/17 06:46:46;;;;;;;6.77;4.17;;;5.30;87.70;;;;;;4997281;28;20196;-67
2023/03/17 06:49:15;;;;;;;8.23;3.87;;;5.30;87.10;;;;;;4997394;28;20342;-71
2023/03/17 06:51:41;;;;;;;6.47;4.30;;;5.40;87.20;;;;;;4996693;28;20203;-70
2023/03/17 06:54:07;;;;;;;5.73;3.73;;;5.40;86.60;;;;;;4997773;28;20656;-72
2023/03/17 06:56:33;;;;;;;4.23;3.40;;;5.40;86.00;;;;;;4996014;28;20215;-81
2023/03/17 06:58:58;;;;;;;5.63;3.77;;;5.50;86.90;;;;;;4997936;28;20670;-79
2023/03/17 07:01:27;;;;;;;5.27;4.20;;;5.50;86.40;;;;;;4998045;28;20204;-72
2023/03/17 07:03:53;;;;;;;7.30;4.37;;;5.60;86.90;;;;;;4997716;28;21087;-72
2023/03/17 07:06:18;;;;;;;5.00;3.80;;;5.70;85.80;;;;;;4995853;28;20326;-72
2023/03/17 07:08:45;;;;;;;4.97;3.80;;;5.70;85.50;;;;;;4997756;28;20238;-72
2023/03/17 07:11:11;;;;;;;6.93;4.07;;;5.70;85.00;;;;;;4996425;28;20571;-65
2023/03/17 07:13:38;;;;;;;5.53;4.50;;;5.80;84.60;;;;;;4990436;28;20238;-65
2023/03/17 07:16:04;;;;;;;11.43;4.07;;;5.90;84.20;;;;;;4990534;28;20701;-65
2023/03/17 07:18:33;;;;;;;5.20;4.70;;;5.90;83.40;;;;;;4989716;28;20220;-64
2023/03/17 07:21:00;;;;;;;6.87;3.90;;;6.00;83.80;;;;;;4991523;28;20212;-64
2023/03/17 07:23:27;;;;;;;5.60;3.77;;;6.10;82.80;;;;;;4991333;28;20204;-64
2023/03/17 07:25:52;;;;;;;8.90;3.50;;;6.20;82.80;;;;;;4989006;28;20192;-64
2023/03/17 07:28:18;;;;;;;7.83;4.90;;;6.40;82.90;;;;;;4991583;28;20200;-64
2023/03/17 07:30:45;;;;;;;9.00;4.47;;;6.50;81.70;;;;;;4988895;28;20347;-65
2023/03/17 07:33:12;;;;;;;5.33;4.20;;;6.60;80.80;;;;;;4987332;28;20732;-67
2023/03/17 07:35:38;;;;;;;8.33;4.03;;;6.70;80.40;;;;;;4990526;28;20223;-65
2023/03/17 07:38:04;;;;;;;7.27;3.63;;;6.80;79.90;;;;;;4978074;28;20220;-66
2023/03/17 07:40:30;;;;;;;5.13;3.63;;;6.80;80.10;;;;;;4977802;28;20208;-65
2023/03/17 07:42:56;;;;;;;6.87;3.57;;;6.90;79.40;;;;;;4985181;28;20230;-65
2023/03/17 07:45:21;;;;;;;6.33;3.30;;;6.90;79.30;;;;;;4996971;28;20663;-66
2023/03/17 07:47:47;;;;;;;12.53;4.20;;;6.90;79.00;;;;;;4996059;28;20596;-65
2023/03/17 07:50:13;;;;;;;5.20;3.60;;;7.00;78.90;;;;;;4996308;28;20214;-64
2023/03/17 07:52:38;;;;;;;5.77;3.57;;;6.90;78.20;;;;;;4995735;28;20223;-64
2023/03/17 07:55:09;;;;;;;6.90;5.07;;;6.80;77.90;;;;;;4986488;28;20201;-64
2023/03/17 07:57:35;;;;;;;7.03;3.87;;;6.80;78.10;;;;;;4984814;28;20219;-63
2023/03/17 08:00:01;;;;;;;6.53;4.67;;;6.80;78.30;;;;;;4989490;28;20196;-64
2023/03/17 08:02:26;;;;;;;6.13;3.87;;;7.00;77.70;;;;;;4990563;28;20310;-64
2023/03/17 08:04:52;;;;;;;5.67;3.70;;;7.10;77.10;;;;;;4992376;28;20263;-66
2023/03/17 08:07:18;;;;;;;6.70;3.80;;;7.30;76.60;;;;;;4989457;28;20738;-63
2023/03/17 08:09:43;;;;;;;7.90;4.10;;;7.40;76.30;;;;;;4991439;28;20200;-64
2023/03/17 08:12:09;;;;;;;4.93;3.63;;;7.50;76.50;;;;;;4992312;28;20203;-63
2023/03/17 08:14:35;;;;;;;8.00;4.13;;;7.70;75.60;;;;;;4987052;28;20313;-63
2023/03/17 08:17:01;;;;;;;7.30;4.13;;;7.80;75.30;;;;;;4983913;28;20204;-65
2023/03/17 08:19:26;;;;;;;5.53;4.40;;;7.80;75.10;;;;;;4985246;28;20938;-65
2023/03/17 08:21:52;;;;;;;6.20;4.03;;;7.80;75.00;;;;;;4985987;28;20196;-63
2023/03/17 08:24:19;;;;;;;7.97;4.50;;;7.90;74.90;;;;;;4989913;28;20215;-63
2023/03/17 08:26:48;;;;;;;4.23;3.40;;;8.00;74.70;;;;;;4993978;28;20204;-64
2023/03/17 08:29:14;;;;;;;4.90;3.83;;;8.10;73.30;;;;;;4991460;28;20242;-63
2023/03/17 08:31:40;;;;;;;8.30;4.33;;;8.10;72.80;;;;;;4987636;28;20244;-64
2023/03/17 08:34:06;;;;;;;6.20;4.63;;;8.20;72.60;;;;;;4993055;28;20324;-65
2023/03/17 08:36:32;;;;;;;5.33;3.93;;;8.30;72.70;;;;;;4985141;28;20289;-64
2023/03/17 08:38:57;;;;;;;3.87;3.57;;;8.40;71.70;;;;;;4988746;28;20228;-64
2023/03/17 08:41:26;;;;;;;5.20;3.87;;;8.30;71.30;;;;;;4985904;28;20204;-64
2023/03/17 08:43:52;;;;;;;5.70;4.20;;;8.50;71.50;;;;;;4991196;28;20238;-62
2023/03/17 08:46:30;;;;;;;7.23;4.13;;;8.70;70.90;;;;;;4987394;28;20227;-64
2023/03/17 08:48:57;;;;;;;5.53;3.97;;;8.70;69.60;;;;;;4989542;28;20296;-63
2023/03/17 08:51:25;;;;;;;6.97;4.53;;;8.70;68.80;;;;;;4985087;28;20279;-67
2023/03/17 08:53:52;;;;;;;5.93;3.93;;;8.60;69.00;;;;;;4989220;28;20204;-63
2023/03/17 08:56:17;;;;;;;6.43;3.53;;;8.60;69.10;;;;;;4990713;28;20212;-67
2023/03/17 08:58:43;;;;;;;8.43;4.60;;;8.60;69.90;;;;;;4986819;28;20854;-64
2023/03/17 09:01:09;;;;;;;6.43;3.77;;;8.70;69.10;;;;;;4986643;28;20259;-62
2023/03/17 09:03:35;;;;;;;6.57;4.37;;;8.70;68.80;;;;;;4985429;28;20221;-63
2023/03/17 09:06:04;;;;;;;5.27;4.20;;;8.70;68.80;;;;;;4984377;28;20202;-63
2023/03/17 09:08:30;;;;;;;8.87;4.40;;;8.80;68.80;;;;;;4986455;28;20201;-66
2023/03/17 09:10:56;;;;;;;7.77;4.33;;;8.90;68.50;;;;;;4985493;28;20332;-64
2023/03/17 09:13:22;;;;;;;7.23;4.00;;;9.00;68.30;;;;;;4985704;28;20320;-65
2023/03/17 09:15:47;;;;;;;3.50;3.20;;;9.10;67.20;;;;;;4983402;28;20301;-64
2023/03/17 09:18:13;;;;;;;7.03;3.90;;;9.10;66.80;;;;;;4986705;28;20224;-64
2023/03/17 09:20:39;;;;;;;5.13;3.87;;;9.20;67.00;;;;;;4985916;28;20213;-64
2023/03/17 09:23:07;;;;;;;7.70;4.60;;;9.30;67.20;;;;;;4986126;28;20199;-65
2023/03/17 09:25:37;;;;;;;5.47;3.90;;;9.50;66.70;;;;;;4986226;28;20204;-65
2023/03/17 09:28:04;;;;;;;7.13;4.13;;;9.60;66.10;;;;;;4985655;28;20200;-65
2023/03/17 09:30:29;;;;;;;5.93;4.20;;;9.70;66.20;;;;;;4985384;28;20218;-64
2023/03/17 09:32:55;;;;;;;9.70;4.40;;;9.80;65.00;;;;;;4984278;28;20226;-65
2023/03/17 09:35:21;;;;;;;5.37;4.17;;;10.00;64.50;;;;;;4985458;28;20207;-64
2023/03/17 09:37:47;;;;;;;5.63;4.30;;;10.10;63.40;;;;;;4982109;28;20708;-64
2023/03/17 09:40:17;;;;;;;5.03;3.50;;;10.30;63.30;;;;;;4986498;28;20512;-64
2023/03/17 09:43:01;;;;;;;6.37;3.80;;;10.40;63.20;;;;;;4986016;28;20201;-67
2023/03/17 09:45:31;;;;;;;5.60;3.73;;;10.60;62.90;;;;;;4986332;28;20288;-64
2023/03/17 09:48:08;;;;;;;6.03;3.97;;;10.70;61.50;;;;;;4987156;28;20312;-65
2023/03/17 09:50:48;;;;;;;4.87;3.73;;;10.90;63.00;;;;;;4984204;28;20747;-65
2023/03/17 09:53:19;;;;;;;6.73;4.20;;;11.10;61.30;;;;;;4986481;28;20229;-64
2023/03/17 09:55:50;;;;;;;6.17;4.13;;;11.20;62.20;;;;;;4983392;28;20218;-65
2023/03/17 09:58:23;;;;;;;5.73;3.83;;;11.40;60.10;;;;;;4983090;28;20701;-66
2023/03/17 10:00:49;;;;;;;3.63;3.33;;;11.40;58.40;;;;;;4985436;28;20202;-64
2023/03/17 10:03:15;;;;;;;4.13;3.30;;;11.30;58.30;;;;;;4994067;28;20592;-63
2023/03/17 10:05:40;;;;;;;4.20;3.13;;;11.40;59.30;;;;;;4993613;28;20200;-63
2023/03/17 10:08:25;;;;;;;7.80;4.03;;;11.50;59.00;;;;;;4988229;28;20206;-76
2023/03/17 10:11:16;;;;;;;4.80;3.83;;;11.70;59.40;;;;;;4977356;28;20209;-66
2023/03/17 10:14:02;;;;;;;5.57;4.00;;;12.00;58.50;;;;;;4976464;28;20204;-66
2023/03/17 10:16:42;;;;;;;5.17;3.77;;;12.10;57.60;;;;;;4991164;28;20199;-67
2023/03/17 10:19:39;;;;;;;7.03;3.83;;;12.10;57.60;;;;;;4986784;28;20216;-66
2023/03/17 10:22:16;;;;;;;6.67;3.40;;;12.10;56.90;;;;;;4990991;28;20644;-65
2023/03/17 10:24:51;;;;;;;6.40;3.27;;;11.90;56.80;;;;;;4991459;28;20842;-64
2023/03/17 10:27:17;;;;;;;4.70;3.30;;;12.10;57.70;;;;;;4985411;28;20202;-64
2023/03/17 10:29:42;;;;;;;5.43;3.33;;;12.20;56.70;;;;;;4989435;28;20205;-63
2023/03/17 10:32:12;;;;;;;4.97;3.53;;;12.20;56.30;;;;;;4991694;28;20198;-65
2023/03/17 10:34:40;;;;;;;4.80;3.53;;;12.20;56.50;;;;;;4989646;28;20237;-65
2023/03/17 10:37:16;;;;;;;5.63;3.97;;;12.50;57.80;;;;;;4988464;28;20863;-64
2023/03/17 10:39:48;;;;;;;4.57;3.43;;;12.80;57.10;;;;;;4988162;28;20226;-63
2023/03/17 10:42:21;;;;;;;5.90;3.43;;;12.90;55.90;;;;;;4988081;28;20201;-64
2023/03/17 10:45:00;;;;;;;5.87;3.47;;;12.90;55.10;;;;;;4987451;28;20347;-80
2023/03/17 10:47:32;;;;;;;7.30;3.30;;;12.90;55.10;;;;;;4995319;28;20203;-72
2023/03/17 10:50:19;;;;;;;7.07;3.47;;;12.90;54.90;;;;;;4998250;28;20207;-73
2023/03/17 10:52:48;;;;;;;3.73;3.20;;;12.90;55.00;;;;;;4994180;28;20705;-73
2023/03/17 10:55:19;;;;;;;5.67;3.13;;;13.10;54.60;;;;;;4990067;28;20250;-72
2023/03/17 10:57:54;;;;;;;5.20;3.23;;;13.20;53.50;;;;;;4988985;28;20315;-70
2023/03/17 11:00:21;;;;;;;4.33;3.40;;;13.40;54.70;;;;;;4981414;28;20752;-75
2023/03/17 11:02:54;;;;;;;3.57;2.90;;;13.70;54.50;;;;;;4978053;28;20211;-72
2023/03/17 11:05:22;;;;;;;4.50;3.43;;;13.60;54.70;;;;;;4979174;28;20198;-72
2023/03/17 11:07:48;;;;;;;4.93;3.50;;;13.80;53.50;;;;;;4984092;28;20291;-72
2023/03/17 11:10:26;;;;;;;5.97;3.23;;;13.90;53.60;;;;;;4978159;28;20207;-72
2023/03/17 11:12:59;;;;;;;7.23;3.80;;;14.00;53.80;;;;;;4978714;28;20234;-76
2023/03/17 11:15:30;;;;;;;4.20;2.87;;;13.90;53.30;;;;;;4981026;28;20280;-71
2023/03/17 11:17:57;;;;;;;6.43;3.77;;;13.90;53.50;;;;;;4986578;28;20315;-73
2023/03/17 11:20:30;;;;;;;5.43;3.43;;;13.90;53.60;;;;;;4986581;28;20212;-80
2023/03/17 11:23:07;;;;;;;4.90;2.93;;;14.00;53.90;;;;;;4989094;28;20207;-72
2023/03/17 11:25:39;;;;;;;3.30;2.97;;;14.30;53.30;;;;;;4990058;28;20224;-72
2023/03/17 11:28:05;;;;;;;6.13;3.50;;;14.80;53.90;;;;;;4985485;28;20274;-71
2023/03/17 11:30:43;;;;;;;4.47;3.27;;;15.10;53.60;;;;;;4987745;28;20208;-72
2023/03/17 11:33:28;;;;;;;5.40;3.30;;;15.40;52.60;;;;;;4985248;28;20224;-72
2023/03/17 11:36:02;;;;;;;3.83;3.07;;;15.10;50.60;;;;;;4987410;28;20204;-72
2023/03/17 11:38:47;;;;;;;3.60;3.13;;;15.10;50.60;;;;;;4986113;28;20212;-71
2023/03/17 11:41:33;;;;;;;4.40;3.47;;;15.10;51.10;;;;;;4985699;28;20200;-71
2023/03/17 11:44:29;;;;;;;4.07;2.60;;;15.20;51.40;;;;;;4987739;28;20204;-71
2023/03/17 11:47:16;;;;;;;3.23;2.67;;;15.50;50.60;;;;;;4987218;28;20253;-70
2023/03/17 11:49:48;;;;;;;3.33;2.80;;;15.70;50.60;;;;;;4988567;28;20397;-70
2023/03/17 11:52:27;;;;;;;4.70;3.40;;;15.80;49.50;;;;;;4987595;28;21150;-71
2023/03/17 11:55:18;;;;;;;3.77;2.93;;;15.70;51.30;;;;;;4985586;28;20214;-71
2023/03/17 11:57:54;;;;;;;6.27;3.10;;;15.70;49.90;;;;;;4980411;28;20275;-71
2023/03/17 12:00:44;;;;;;;3.17;2.77;;;16.10;50.20;;;;;;4981598;28;20948;-72
2023/03/17 12:03:31;;;;;;;8.27;4.00;;;16.10;49.30;;;;;;4987179;28;20574;-71
2023/03/17 12:06:04;;;;;;;3.50;2.50;;;16.20;49.90;;;;;;4987166;28;20208;-71
2023/03/17 12:08:44;;;;;;;4.60;2.60;;;16.00;49.20;;;;;;4987047;28;20195;-70
2023/03/17 12:11:19;;;;;;;5.50;3.07;;;16.00;49.30;;;;;;4983670;28;20246;-72
2023/03/17 12:13:58;;;;;;;2.83;2.50;;;16.20;50.10;;;;;;4995736;28;20211;-71
2023/03/17 12:16:34;;;;;;;5.43;2.90;;;16.40;48.30;;;;;;4987944;28;20196;-71
2023/03/17 12:19:08;;;;;;;4.03;3.07;;;16.10;48.30;;;;;;4986187;28;20228;-71
2023/03/17 12:21:58;;;;;;;3.53;2.37;;;15.80;48.80;;;;;;4984899;28;20207;-71
2023/03/17 12:24:50;;;;;;;3.37;2.60;;;15.60;49.30;;;;;;4988030;28;20192;-71
2023/03/17 12:27:37;;;;;;;5.20;2.83;;;15.60;49.50;;;;;;4945903;28;20224;-72
2023/03/17 12:30:06;;;;;;;3.53;2.60;;;15.70;49.10;;;;;;4986436;28;20213;-71
2023/03/17 12:32:54;;;;;;;6.60;3.10;;;15.80;50.30;;;;;;4985996;28;20223;-71
2023/03/17 12:35:25;;;;;;;4.33;2.67;;;16.30;50.80;;;;;;4988252;28;20255;-71
2023/03/17 12:37:51;;;;;;;4.97;3.03;;;16.30;49.30;;;;;;4984666;28;20280;-72
2023/03/17 12:40:21;;;;;;;4.80;3.00;;;16.10;48.80;;;;;;4987371;28;20226;-72
2023/03/17 12:43:12;;;;;;;5.47;2.87;;;16.10;48.40;;;;;;4987337;28;20243;-70
2023/03/17 12:46:01;;;;;;;4.60;2.60;;;15.90;48.50;;;;;;4986531;28;20281;-70
2023/03/17 12:48:43;;;;;;;3.83;2.40;;;15.70;49.30;;;;;;4969692;28;20268;-70
2023/03/17 12:51:32;;;;;;;3.37;2.53;;;15.80;49.40;;;;;;4984730;28;20310;-70
2023/03/17 12:53:59;;;;;;;3.77;2.63;;;16.00;49.00;;;;;;4985914;28;20226;-69
2023/03/17 12:56:32;;;;;;;3.03;2.43;;;16.10;48.90;;;;;;4985677;28;20208;-71
2023/03/17 12:59:07;;;;;;;10.40;3.00;;;16.30;48.80;;;;;;4985894;28;20298;-70
2023/03/17 13:01:51;;;;;;;2.27;2.07;;;16.20;48.50;;;;;;4990615;28;20199;-70